Details for SAS (Scandinavian Airlines) at ENGM




Go Back


Latest METAR
Local Time

ENGM 232350Z 11006KT 080V150 9999 -SN OVC008 M05/M06 Q1034

24/02/2018, 01:02:38

Description
Results
SAS (Scandinavian Airlines) Logo
Number of Pilots based at ENGM
0 Pilots Based here
Number of SAS (Scandinavian Airlines) Flights Departed from ENGM
5 Flights Departed
Number of SAS (Scandinavian Airlines) Flights Arrived at ENGM
6 Flights Arrived
Number of SAS (Scandinavian Airlines) Schedules Departing from ENGM
309 Schedules
Number of SAS (Scandinavian Airlines) Schedules Arriving at ENGM
314 Schedules
Number of SAS (Scandinavian Airlines) Schedules Departing from ENGM availible today
55 Schedules Today
Number of SAS (Scandinavian Airlines) Schedules Arriving at ENGM availible today
66 Schedules Today
Average Landing Rate at ENGM
-199 fpm
SAS (Scandinavian Airlines) Average Landing Rate at ENGM
-163 fpm
Total Fuel Purchased at ENGM by SAS (Scandinavian Airlines)
18,727.47 kgs / 41,286.58 lbs

Pilots Based at ENGM


Pilot ID
Pilot Name
Pilot Rank
No. of Flights
No. of Flying Hours
There are no pilots assigned to this hub!   Will you be the first?
Content